sensor_id;sensor_type;location;lat;lon;timestamp;pressure;altitude;pressure_sealevel;temperature;humidity
55271;BME280;41132;47.162;9.470;2023-04-04T00:02:05;96829.56;;;3.01;78.78
55271;BME280;41132;47.162;9.470;2023-04-04T00:04:32;96834.25;;;3.08;77.61
55271;BME280;41132;47.162;9.470;2023-04-04T00:06:57;96824.59;;;3.10;77.71
55271;BME280;41132;47.162;9.470;2023-04-04T00:09:23;96828.31;;;2.93;79.05
55271;BME280;41132;47.162;9.470;2023-04-04T00:11:48;96837.72;;;2.82;80.53
55271;BME280;41132;47.162;9.470;2023-04-04T00:14:14;96829.75;;;2.85;78.92
55271;BME280;41132;47.162;9.470;2023-04-04T00:16:40;96828.88;;;3.11;76.64
55271;BME280;41132;47.162;9.470;2023-04-04T00:19:05;96831.56;;;3.10;77.98
55271;BME280;41132;47.162;9.470;2023-04-04T00:21:31;96831.22;;;3.02;78.69
55271;BME280;41132;47.162;9.470;2023-04-04T00:23:57;96822.56;;;2.76;80.56
55271;BME280;41132;47.162;9.470;2023-04-04T00:26:23;96818.13;;;2.90;77.81
55271;BME280;41132;47.162;9.470;2023-04-04T00:28:49;96828.50;;;2.78;80.46
55271;BME280;41132;47.162;9.470;2023-04-04T00:31:14;96828.72;;;2.87;78.12
55271;BME280;41132;47.162;9.470;2023-04-04T00:33:40;96834.00;;;2.86;78.39
55271;BME280;41132;47.162;9.470;2023-04-04T00:36:05;96815.00;;;2.72;80.82
55271;BME280;41132;47.162;9.470;2023-04-04T00:38:31;96829.69;;;2.59;80.41
55271;BME280;41132;47.162;9.470;2023-04-04T00:40:56;96812.72;;;2.41;79.65
55271;BME280;41132;47.162;9.470;2023-04-04T00:43:22;96827.63;;;2.64;79.48
55271;BME280;41132;47.162;9.470;2023-04-04T00:45:49;96821.31;;;2.68;79.36
55271;BME280;41132;47.162;9.470;2023-04-04T00:48:16;96828.69;;;2.47;80.62
55271;BME280;41132;47.162;9.470;2023-04-04T00:50:41;96812.84;;;2.52;79.41
55271;BME280;41132;47.162;9.470;2023-04-04T00:53:07;96809.13;;;2.56;81.94
55271;BME280;41132;47.162;9.470;2023-04-04T00:55:32;96816.00;;;2.57;80.54
55271;BME280;41132;47.162;9.470;2023-04-04T00:57:58;96805.34;;;2.47;82.68
55271;BME280;41132;47.162;9.470;2023-04-04T01:00:24;96803.63;;;2.48;81.21
55271;BME280;41132;47.162;9.470;2023-04-04T01:02:50;96821.09;;;2.44;82.20
55271;BME280;41132;47.162;9.470;2023-04-04T01:05:15;96818.06;;;2.38;82.93
55271;BME280;41132;47.162;9.470;2023-04-04T01:07:41;96814.91;;;2.47;82.17
55271;BME280;41132;47.162;9.470;2023-04-04T01:10:07;96812.50;;;2.44;83.58
55271;BME280;41132;47.162;9.470;2023-04-04T01:12:33;96798.28;;;2.64;80.54
55271;BME280;41132;47.162;9.470;2023-04-04T01:14:59;96819.84;;;2.64;80.98
55271;BME280;41132;47.162;9.470;2023-04-04T01:17:26;96813.03;;;2.49;81.05
55271;BME280;41132;47.162;9.470;2023-04-04T01:22:29;96810.25;;;2.52;82.09
55271;BME280;41132;47.162;9.470;2023-04-04T01:24:57;96793.56;;;2.56;80.94
55271;BME280;41132;47.162;9.470;2023-04-04T01:27:23;96821.16;;;2.57;80.71
55271;BME280;41132;47.162;9.470;2023-04-04T01:29:49;96805.50;;;2.32;83.31
55271;BME280;41132;47.162;9.470;2023-04-04T01:32:18;96818.44;;;2.46;82.89
55271;BME280;41132;47.162;9.470;2023-04-04T01:35:12;96811.63;;;2.58;81.45
55271;BME280;41132;47.162;9.470;2023-04-04T01:40:40;96793.13;;;2.49;82.10
55271;BME280;41132;47.162;9.470;2023-04-04T01:43:09;96806.31;;;2.46;82.37
55271;BME280;41132;47.162;9.470;2023-04-04T01:45:34;96801.34;;;2.56;80.25
55271;BME280;41132;47.162;9.470;2023-04-04T01:48:00;96805.31;;;2.62;82.02
55271;BME280;41132;47.162;9.470;2023-04-04T01:50:25;96805.78;;;2.54;81.06
55271;BME280;41132;47.162;9.470;2023-04-04T01:52:51;96811.25;;;2.64;79.19
55271;BME280;41132;47.162;9.470;2023-04-04T01:55:17;96809.81;;;2.72;79.16
55271;BME280;41132;47.162;9.470;2023-04-04T01:57:42;96809.34;;;2.53;79.21
55271;BME280;41132;47.162;9.470;2023-04-04T02:00:08;96813.03;;;2.76;76.03
55271;BME280;41132;47.162;9.470;2023-04-04T02:02:33;96812.38;;;2.60;78.23
55271;BME280;41132;47.162;9.470;2023-04-04T02:04:59;96804.34;;;2.50;78.78
55271;BME280;41132;47.162;9.470;2023-04-04T02:07:24;96809.13;;;2.56;80.01
55271;BME280;41132;47.162;9.470;2023-04-04T02:09:53;96805.34;;;2.47;77.46
55271;BME280;41132;47.162;9.470;2023-04-04T02:12:18;96816.72;;;2.59;78.01
55271;BME280;41132;47.162;9.470;2023-04-04T02:14:43;96806.81;;;2.51;77.47
55271;BME280;41132;47.162;9.470;2023-04-04T02:17:09;96803.19;;;2.41;77.28
55271;BME280;41132;47.162;9.470;2023-04-04T02:19:34;96795.63;;;2.24;78.23
55271;BME280;41132;47.162;9.470;2023-04-04T02:22:00;96801.78;;;2.36;78.83
55271;BME280;41132;47.162;9.470;2023-04-04T02:24:25;96800.31;;;2.59;74.59
55271;BME280;41132;47.162;9.470;2023-04-04T02:26:51;96796.66;;;2.48;78.88
55271;BME280;41132;47.162;9.470;2023-04-04T02:29:16;96794.38;;;2.44;77.92
55271;BME280;41132;47.162;9.470;2023-04-04T02:31:41;96802.63;;;2.36;78.43
55271;BME280;41132;47.162;9.470;2023-04-04T02:34:07;96800.69;;;2.40;78.07
55271;BME280;41132;47.162;9.470;2023-04-04T02:36:33;96800.22;;;2.33;79.18
55271;BME280;41132;47.162;9.470;2023-04-04T02:38:58;96801.56;;;2.26;77.78
55271;BME280;41132;47.162;9.470;2023-04-04T02:41:25;96781.78;;;2.11;80.26
55271;BME280;41132;47.162;9.470;2023-04-04T02:43:50;96788.59;;;2.26;78.80
55271;BME280;41132;47.162;9.470;2023-04-04T02:46:15;96806.28;;;2.19;81.85
55271;BME280;41132;47.162;9.470;2023-04-04T02:48:45;96793.91;;;2.10;82.51
55271;BME280;41132;47.162;9.470;2023-04-04T02:51:10;96795.22;;;2.03;81.36
55271;BME280;41132;47.162;9.470;2023-04-04T02:53:35;96794.50;;;2.01;82.48
55271;BME280;41132;47.162;9.470;2023-04-04T02:56:02;96764.50;;;1.70;81.88
55271;BME280;41132;47.162;9.470;2023-04-04T02:58:28;96787.50;;;1.88;81.56
55271;BME280;41132;47.162;9.470;2023-04-04T03:00:55;96792.31;;;2.22;76.57
55271;BME280;41132;47.162;9.470;2023-04-04T03:03:20;96794.97;;;1.93;80.87
55271;BME280;41132;47.162;9.470;2023-04-04T03:05:46;96797.13;;;1.86;80.44
55271;BME280;41132;47.162;9.470;2023-04-04T03:08:13;96800.16;;;1.93;81.92
55271;BME280;41132;47.162;9.470;2023-04-04T03:10:39;96797.38;;;1.96;80.56
55271;BME280;41132;47.162;9.470;2023-04-04T03:13:04;96792.19;;;1.96;81.11
55271;BME280;41132;47.162;9.470;2023-04-04T03:15:30;96793.66;;;1.86;79.86
55271;BME280;41132;47.162;9.470;2023-04-04T03:17:55;96796.19;;;1.87;79.74
55271;BME280;41132;47.162;9.470;2023-04-04T03:20:23;96797.41;;;1.82;81.94
55271;BME280;41132;47.162;9.470;2023-04-04T03:22:48;96781.97;;;1.66;82.03
55271;BME280;41132;47.162;9.470;2023-04-04T03:25:14;96790.91;;;1.75;81.72
55271;BME280;41132;47.162;9.470;2023-04-04T03:27:40;96809.03;;;1.75;80.81
55271;BME280;41132;47.162;9.470;2023-04-04T03:30:08;96784.06;;;1.88;79.40
55271;BME280;41132;47.162;9.470;2023-04-04T03:32:35;96805.88;;;1.84;80.70
55271;BME280;41132;47.162;9.470;2023-04-04T03:35:01;96812.34;;;1.77;80.62
55271;BME280;41132;47.162;9.470;2023-04-04T03:37:28;96810.59;;;1.92;79.75
55271;BME280;41132;47.162;9.470;2023-04-04T03:39:54;96798.56;;;1.91;79.63
55271;BME280;41132;47.162;9.470;2023-04-04T03:42:19;96789.38;;;1.58;80.90
55271;BME280;41132;47.162;9.470;2023-04-04T03:44:45;96810.78;;;1.74;81.51
55271;BME280;41132;47.162;9.470;2023-04-04T03:47:10;96808.56;;;1.68;82.35
55271;BME280;41132;47.162;9.470;2023-04-04T03:49:35;96806.47;;;1.60;80.24
55271;BME280;41132;47.162;9.470;2023-04-04T03:52:01;96797.50;;;1.66;80.14
55271;BME280;41132;47.162;9.470;2023-04-04T03:54:27;96810.44;;;1.80;80.50
55271;BME280;41132;47.162;9.470;2023-04-04T03:56:53;96812.47;;;1.75;81.51
55271;BME280;41132;47.162;9.470;2023-04-04T03:59:19;96799.34;;;1.64;80.30
55271;BME280;41132;47.162;9.470;2023-04-04T04:01:45;96809.13;;;1.44;82.79
55271;BME280;41132;47.162;9.470;2023-04-04T04:04:10;96802.19;;;1.31;83.70
55271;BME280;41132;47.162;9.470;2023-04-04T04:06:36;96817.00;;;1.57;82.54
55271;BME280;41132;47.162;9.470;2023-04-04T04:09:02;96818.19;;;1.52;81.83
55271;BME280;41132;47.162;9.470;2023-04-04T04:11:27;96821.78;;;1.49;82.38
55271;BME280;41132;47.162;9.470;2023-04-04T04:13:53;96818.38;;;1.77;80.56
55271;BME280;41132;47.162;9.470;2023-04-04T04:16:19;96808.31;;;1.58;82.17
55271;BME280;41132;47.162;9.470;2023-04-04T04:18:46;96795.38;;;1.44;83.42
55271;BME280;41132;47.162;9.470;2023-04-04T04:21:11;96793.88;;;1.40;83.39
55271;BME280;41132;47.162;9.470;2023-04-04T04:23:37;96799.06;;;1.54;81.73
55271;BME280;41132;47.162;9.470;2023-04-04T04:26:02;96800.91;;;1.38;83.14
55271;BME280;41132;47.162;9.470;2023-04-04T04:28:28;96815.59;;;1.37;82.68
55271;BME280;41132;47.162;9.470;2023-04-04T04:30:54;96809.69;;;1.35;83.12
55271;BME280;41132;47.162;9.470;2023-04-04T04:33:26;96812.47;;;1.46;84.13
55271;BME280;41132;47.162;9.470;2023-04-04T04:35:57;96814.94;;;1.34;84.26
55271;BME280;41132;47.162;9.470;2023-04-04T04:38:22;96828.06;;;1.45;83.35
55271;BME280;41132;47.162;9.470;2023-04-04T04:40:48;96813.31;;;1.61;81.62
55271;BME280;41132;47.162;9.470;2023-04-04T04:43:13;96814.94;;;1.34;82.87
55271;BME280;41132;47.162;9.470;2023-04-04T04:45:40;96826.78;;;1.52;82.31
55271;BME280;41132;47.162;9.470;2023-04-04T04:48:06;96828.19;;;1.43;82.01
55271;BME280;41132;47.162;9.470;2023-04-04T04:50:34;96817.03;;;1.13;85.56
55271;BME280;41132;47.162;9.470;2023-04-04T04:53:00;96835.44;;;1.22;84.62
55271;BME280;41132;47.162;9.470;2023-04-04T04:55:25;96838.31;;;1.32;83.28
55271;BME280;41132;47.162;9.470;2023-04-04T04:57:51;96838.88;;;1.23;84.83
55271;BME280;41132;47.162;9.470;2023-04-04T05:00:17;96834.13;;;1.15;84.98
55271;BME280;41132;47.162;9.470;2023-04-04T05:02:43;96838.13;;;1.21;84.00
55271;BME280;41132;47.162;9.470;2023-04-04T05:05:08;96829.78;;;1.16;84.40
55271;BME280;41132;47.162;9.470;2023-04-04T05:07:33;96836.44;;;1.20;85.47
55271;BME280;41132;47.162;9.470;2023-04-04T05:09:59;96831.66;;;1.14;84.91
55271;BME280;41132;47.162;9.470;2023-04-04T05:12:24;96838.88;;;1.23;82.69
55271;BME280;41132;47.162;9.470;2023-04-04T05:14:49;96842.22;;;1.39;83.13
55271;BME280;41132;47.162;9.470;2023-04-04T05:17:15;96836.22;;;1.09;84.20
55271;BME280;41132;47.162;9.470;2023-04-04T05:19:40;96844.13;;;1.21;84.78
55271;BME280;41132;47.162;9.470;2023-04-04T05:22:06;96851.41;;;1.29;82.46
55271;BME280;41132;47.162;9.470;2023-04-04T05:24:32;96845.53;;;1.41;80.43
55271;BME280;41132;47.162;9.470;2023-04-04T05:26:57;96857.38;;;1.45;80.49
55271;BME280;41132;47.162;9.470;2023-04-04T05:29:23;96855.75;;;1.14;82.34
55271;BME280;41132;47.162;9.470;2023-04-04T05:31:48;96855.41;;;1.20;82.94
55271;BME280;41132;47.162;9.470;2023-04-04T05:34:15;96860.09;;;1.28;82.67
55271;BME280;41132;47.162;9.470;2023-04-04T05:36:41;96857.22;;;1.18;83.26
55271;BME280;41132;47.162;9.470;2023-04-04T05:39:07;96858.81;;;1.21;83.39
55271;BME280;41132;47.162;9.470;2023-04-04T05:41:32;96861.50;;;1.34;81.13
55271;BME280;41132;47.162;9.470;2023-04-04T05:43:58;96860.84;;;1.30;80.04
55271;BME280;41132;47.162;9.470;2023-04-04T05:46:23;96839.28;;;1.15;82.00
55271;BME280;41132;47.162;9.470;2023-04-04T05:48:50;96855.22;;;1.23;83.92
55271;BME280;41132;47.162;9.470;2023-04-04T05:51:16;96863.47;;;1.44;81.55
55271;BME280;41132;47.162;9.470;2023-04-04T05:53:41;96857.97;;;1.20;81.49
55271;BME280;41132;47.162;9.470;2023-04-04T05:56:10;96872.03;;;1.31;82.47
55271;BME280;41132;47.162;9.470;2023-04-04T05:58:36;96867.63;;;1.47;79.58
55271;BME280;41132;47.162;9.470;2023-04-04T06:01:05;96866.72;;;1.48;79.60
55271;BME280;41132;47.162;9.470;2023-04-04T06:03:30;96872.69;;;1.34;80.59
55271;BME280;41132;47.162;9.470;2023-04-04T06:05:56;96883.25;;;1.45;79.58
55271;BME280;41132;47.162;9.470;2023-04-04T06:08:21;96875.94;;;1.52;77.16
55271;BME280;41132;47.162;9.470;2023-04-04T06:10:47;96879.28;;;1.83;75.26
55271;BME280;41132;47.162;9.470;2023-04-04T06:13:12;96882.06;;;1.80;76.90
55271;BME280;41132;47.162;9.470;2023-04-04T06:15:37;96880.59;;;1.76;76.39
55271;BME280;41132;47.162;9.470;2023-04-04T06:18:03;96881.78;;;1.99;77.73
55271;BME280;41132;47.162;9.470;2023-04-04T06:20:28;96881.22;;;2.08;79.27
55271;BME280;41132;47.162;9.470;2023-04-04T06:22:53;96883.06;;;2.20;79.61
55271;BME280;41132;47.162;9.470;2023-04-04T06:25:19;96875.44;;;2.32;75.97
55271;BME280;41132;47.162;9.470;2023-04-04T06:27:45;96893.94;;;2.40;74.07
55271;BME280;41132;47.162;9.470;2023-04-04T06:30:11;96891.06;;;2.44;72.64
55271;BME280;41132;47.162;9.470;2023-04-04T06:32:38;96888.44;;;2.59;73.23
55271;BME280;41132;47.162;9.470;2023-04-04T06:35:04;96883.44;;;2.83;74.33
55271;BME280;41132;47.162;9.470;2023-04-04T06:37:29;96885.09;;;2.84;72.53
55271;BME280;41132;47.162;9.470;2023-04-04T06:39:55;96890.03;;;2.88;71.67
55271;BME280;41132;47.162;9.470;2023-04-04T06:42:20;96891.50;;;2.51;71.29
55271;BME280;41132;47.162;9.470;2023-04-04T06:44:46;96898.28;;;2.39;73.84
55271;BME280;41132;47.162;9.470;2023-04-04T06:47:11;96892.00;;;2.43;73.82
55271;BME280;41132;47.162;9.470;2023-04-04T06:49:36;96896.91;;;2.75;73.99
55271;BME280;41132;47.162;9.470;2023-04-04T06:52:02;96890.34;;;2.97;75.26
55271;BME280;41132;47.162;9.470;2023-04-04T06:54:28;96895.75;;;2.52;73.33
55271;BME280;41132;47.162;9.470;2023-04-04T06:56:54;96888.19;;;2.76;73.63
55271;BME280;41132;47.162;9.470;2023-04-04T06:59:19;96885.69;;;3.80;73.80
55271;BME280;41132;47.162;9.470;2023-04-04T07:01:44;96886.50;;;3.42;70.39
55271;BME280;41132;47.162;9.470;2023-04-04T07:04:10;96872.59;;;3.30;71.15
55271;BME280;41132;47.162;9.470;2023-04-04T07:06:35;96880.69;;;3.90;70.25
55271;BME280;41132;47.162;9.470;2023-04-04T07:09:01;96884.50;;;3.33;70.07
55271;BME280;41132;47.162;9.470;2023-04-04T07:11:28;96874.16;;;3.84;74.08
55271;BME280;41132;47.162;9.470;2023-04-04T07:13:54;96883.38;;;3.88;70.88
55271;BME280;41132;47.162;9.470;2023-04-04T07:16:19;96886.41;;;3.69;71.69
55271;BME280;41132;47.162;9.470;2023-04-04T07:18:45;96869.69;;;4.36;67.95
55271;BME280;41132;47.162;9.470;2023-04-04T07:21:10;96862.38;;;4.04;67.90
55271;BME280;41132;47.162;9.470;2023-04-04T07:23:36;96878.19;;;4.14;68.31
55271;BME280;41132;47.162;9.470;2023-04-04T07:26:01;96871.84;;;4.55;70.15
55271;BME280;41132;47.162;9.470;2023-04-04T07:28:26;96875.06;;;4.82;69.77
55271;BME280;41132;47.162;9.470;2023-04-04T07:30:52;96865.38;;;4.85;69.10
55271;BME280;41132;47.162;9.470;2023-04-04T07:33:17;96868.56;;;5.12;63.63
55271;BME280;41132;47.162;9.470;2023-04-04T07:35:42;96861.38;;;5.74;61.83
55271;BME280;41132;47.162;9.470;2023-04-04T07:38:08;96867.59;;;4.78;65.16
55271;BME280;41132;47.162;9.470;2023-04-04T07:40:34;96854.53;;;4.91;67.77
55271;BME280;41132;47.162;9.470;2023-04-04T07:42:59;96856.25;;;5.03;66.60
55271;BME280;41132;47.162;9.470;2023-04-04T07:45:25;96843.75;;;4.84;64.78
55271;BME280;41132;47.162;9.470;2023-04-04T07:47:51;96860.53;;;5.51;64.85
55271;BME280;41132;47.162;9.470;2023-04-04T07:50:16;96855.91;;;5.08;64.32
55271;BME280;41132;47.162;9.470;2023-04-04T07:52:47;96862.13;;;5.29;64.69
55271;BME280;41132;47.162;9.470;2023-04-04T07:55:15;96858.94;;;5.37;64.26
55271;BME280;41132;47.162;9.470;2023-04-04T07:57:40;96844.75;;;5.30;62.57
55271;BME280;41132;47.162;9.470;2023-04-04T08:00:07;96854.97;;;5.20;63.47
55271;BME280;41132;47.162;9.470;2023-04-04T08:02:36;96841.66;;;5.36;66.77
55271;BME280;41132;47.162;9.470;2023-04-04T08:05:02;96858.59;;;5.41;61.83
55271;BME280;41132;47.162;9.470;2023-04-04T08:07:28;96858.47;;;6.01;66.59
55271;BME280;41132;47.162;9.470;2023-04-04T08:09:53;96850.03;;;5.63;63.81
55271;BME280;41132;47.162;9.470;2023-04-04T08:12:18;96862.13;;;5.98;61.68
55271;BME280;41132;47.162;9.470;2023-04-04T08:14:44;96834.88;;;5.69;66.25
55271;BME280;41132;47.162;9.470;2023-04-04T08:17:09;96848.31;;;5.51;62.07
55271;BME280;41132;47.162;9.470;2023-04-04T08:19:36;96839.13;;;5.81;61.53
55271;BME280;41132;47.162;9.470;2023-04-04T08:22:01;96851.81;;;6.08;64.16
55271;BME280;41132;47.162;9.470;2023-04-04T08:24:27;96851.63;;;6.77;64.59
55271;BME280;41132;47.162;9.470;2023-04-04T08:26:52;96844.91;;;6.63;59.96
55271;BME280;41132;47.162;9.470;2023-04-04T08:29:18;96847.13;;;6.13;63.65
55271;BME280;41132;47.162;9.470;2023-04-04T08:31:44;96854.44;;;5.97;62.11
55271;BME280;41132;47.162;9.470;2023-04-04T08:34:09;96850.91;;;5.98;62.77
55271;BME280;41132;47.162;9.470;2023-04-04T08:36:35;96851.59;;;6.34;62.56
55271;BME280;41132;47.162;9.470;2023-04-04T08:39:00;96840.31;;;5.88;63.44
55271;BME280;41132;47.162;9.470;2023-04-04T08:41:26;96851.47;;;6.01;64.51
55271;BME280;41132;47.162;9.470;2023-04-04T08:43:52;96851.38;;;7.01;60.87
55271;BME280;41132;47.162;9.470;2023-04-04T08:46:21;96837.19;;;6.62;61.52
55271;BME280;41132;47.162;9.470;2023-04-04T08:48:51;96841.91;;;6.68;63.42
55271;BME280;41132;47.162;9.470;2023-04-04T08:51:19;96839.06;;;7.24;59.99
55271;BME280;41132;47.162;9.470;2023-04-04T08:53:45;96844.09;;;6.95;60.87
55271;BME280;41132;47.162;9.470;2023-04-04T08:56:11;96834.75;;;6.26;60.11
55271;BME280;41132;47.162;9.470;2023-04-04T08:58:37;96841.56;;;6.61;62.94
55271;BME280;41132;47.162;9.470;2023-04-04T09:01:04;96834.28;;;6.76;60.91
55271;BME280;41132;47.162;9.470;2023-04-04T09:03:32;96840.44;;;6.43;59.89
55271;BME280;41132;47.162;9.470;2023-04-04T09:06:00;96842.34;;;6.41;60.66
55271;BME280;41132;47.162;9.470;2023-04-04T09:08:27;96840.78;;;6.50;61.00
55271;BME280;41132;47.162;9.470;2023-04-04T09:10:53;96829.13;;;6.54;61.34
55271;BME280;41132;47.162;9.470;2023-04-04T09:13:19;96835.47;;;6.72;58.99
55271;BME280;41132;47.162;9.470;2023-04-04T09:15:46;96834.38;;;7.18;61.19
55271;BME280;41132;47.162;9.470;2023-04-04T09:18:12;96838.06;;;7.37;60.71
55271;BME280;41132;47.162;9.470;2023-04-04T09:23:12;96835.56;;;7.77;58.07
55271;BME280;41132;47.162;9.470;2023-04-04T09:25:45;96838.16;;;7.56;57.66
55271;BME280;41132;47.162;9.470;2023-04-04T09:28:14;96839.16;;;7.13;57.42
55271;BME280;41132;47.162;9.470;2023-04-04T09:30:40;96832.13;;;7.56;60.92
55271;BME280;41132;47.162;9.470;2023-04-04T09:33:05;96835.34;;;6.41;58.72
55271;BME280;41132;47.162;9.470;2023-04-04T09:35:37;96847.22;;;6.23;59.30
55271;BME280;41132;47.162;9.470;2023-04-04T09:38:07;96839.38;;;7.10;58.97
55271;BME280;41132;47.162;9.470;2023-04-04T09:40:36;96842.41;;;6.51;58.79
55271;BME280;41132;47.162;9.470;2023-04-04T09:43:03;96830.72;;;7.09;60.45
55271;BME280;41132;47.162;9.470;2023-04-04T09:45:33;96842.84;;;7.31;55.50
55271;BME280;41132;47.162;9.470;2023-04-04T09:48:00;96831.84;;;6.96;58.25
55271;BME280;41132;47.162;9.470;2023-04-04T09:50:27;96832.34;;;7.43;57.01
55271;BME280;41132;47.162;9.470;2023-04-04T09:52:57;96826.19;;;7.74;57.23
55271;BME280;41132;47.162;9.470;2023-04-04T09:55:41;96836.84;;;7.62;58.55
55271;BME280;41132;47.162;9.470;2023-04-04T09:58:12;96825.50;;;7.72;56.36
55271;BME280;41132;47.162;9.470;2023-04-04T10:00:45;96828.34;;;7.90;58.91
55271;BME280;41132;47.162;9.470;2023-04-04T10:03:14;96827.69;;;8.08;56.99
55271;BME280;41132;47.162;9.470;2023-04-04T10:05:39;96836.94;;;8.12;54.80
55271;BME280;41132;47.162;9.470;2023-04-04T10:08:19;96831.09;;;7.68;55.78
55271;BME280;41132;47.162;9.470;2023-04-04T10:10:49;96837.91;;;8.11;56.83
55271;BME280;41132;47.162;9.470;2023-04-04T10:13:25;96831.03;;;7.58;54.36
55271;BME280;41132;47.162;9.470;2023-04-04T10:15:53;96823.19;;;7.79;54.88
55271;BME280;41132;47.162;9.470;2023-04-04T10:18:29;96837.47;;;7.75;52.82
55271;BME280;41132;47.162;9.470;2023-04-04T10:20:56;96836.22;;;7.48;53.67
55271;BME280;41132;47.162;9.470;2023-04-04T10:23:23;96833.66;;;7.79;51.10
55271;BME280;41132;47.162;9.470;2023-04-04T10:25:53;96834.75;;;8.17;54.03
55271;BME280;41132;47.162;9.470;2023-04-04T10:28:19;96827.03;;;8.46;51.90
55271;BME280;41132;47.162;9.470;2023-04-04T10:39:39;96828.03;;;8.84;53.90
55271;BME280;41132;47.162;9.470;2023-04-04T10:42:09;96822.94;;;9.22;52.74
55271;BME280;41132;47.162;9.470;2023-04-04T10:44:38;96816.50;;;8.36;50.23
55271;BME280;41132;47.162;9.470;2023-04-04T10:47:20;96826.03;;;7.45;49.40
55271;BME280;41132;47.162;9.470;2023-04-04T10:49:48;96820.81;;;7.45;52.06
55271;BME280;41132;47.162;9.470;2023-04-04T10:52:17;96831.69;;;7.29;50.77
55271;BME280;41132;47.162;9.470;2023-04-04T10:54:43;96819.47;;;7.09;50.40
55271;BME280;41132;47.162;9.470;2023-04-04T10:57:11;96819.66;;;7.38;50.49
55271;BME280;41132;47.162;9.470;2023-04-04T11:05:17;96810.00;;;6.97;50.66
55271;BME280;41132;47.162;9.470;2023-04-04T11:07:45;96820.75;;;6.82;51.36
55271;BME280;41132;47.162;9.470;2023-04-04T11:10:22;96799.84;;;6.94;47.58
55271;BME280;41132;47.162;9.470;2023-04-04T11:12:51;96806.41;;;7.09;50.35
55271;BME280;41132;47.162;9.470;2023-04-04T11:15:23;96808.91;;;6.78;50.79
55271;BME280;41132;47.162;9.470;2023-04-04T11:17:56;96805.19;;;6.60;51.46
55271;BME280;41132;47.162;9.470;2023-04-04T11:20:28;96807.53;;;6.63;49.16
55271;BME280;41132;47.162;9.470;2023-04-04T11:23:17;96807.13;;;6.79;48.43
55271;BME280;41132;47.162;9.470;2023-04-04T11:25:53;96794.16;;;6.88;48.84
55271;BME280;41132;47.162;9.470;2023-04-04T11:34:11;96794.88;;;6.90;51.39
55271;BME280;41132;47.162;9.470;2023-04-04T11:39:04;96798.03;;;6.73;50.73
55271;BME280;41132;47.162;9.470;2023-04-04T11:42:01;96803.56;;;6.47;51.97
55271;BME280;41132;47.162;9.470;2023-04-04T11:44:30;96803.53;;;6.91;51.32
55271;BME280;41132;47.162;9.470;2023-04-04T11:49:36;96795.63;;;6.81;51.74
55271;BME280;41132;47.162;9.470;2023-04-04T11:52:07;96800.97;;;6.36;52.00
55271;BME280;41132;47.162;9.470;2023-04-04T11:54:37;96795.97;;;6.44;53.71
55271;BME280;41132;47.162;9.470;2023-04-04T11:57:05;96786.50;;;6.43;50.69
55271;BME280;41132;47.162;9.470;2023-04-04T11:59:31;96800.69;;;6.51;50.04
55271;BME280;41132;47.162;9.470;2023-04-04T12:01:57;96786.44;;;6.22;45.86
55271;BME280;41132;47.162;9.470;2023-04-04T12:04:24;96789.19;;;6.53;50.34
55271;BME280;41132;47.162;9.470;2023-04-04T12:06:52;96787.25;;;6.66;49.97
55271;BME280;41132;47.162;9.470;2023-04-04T12:09:18;96783.19;;;6.74;50.33
55271;BME280;41132;47.162;9.470;2023-04-04T12:11:45;96786.28;;;6.67;49.76
55271;BME280;41132;47.162;9.470;2023-04-04T12:14:31;96784.97;;;6.73;47.79
55271;BME280;41132;47.162;9.470;2023-04-04T12:16:57;96775.59;;;6.82;50.56
55271;BME280;41132;47.162;9.470;2023-04-04T12:19:24;96786.47;;;6.87;49.12
55271;BME280;41132;47.162;9.470;2023-04-04T12:21:51;96793.56;;;6.64;48.12
55271;BME280;41132;47.162;9.470;2023-04-04T12:24:16;96789.22;;;6.74;49.29
55271;BME280;41132;47.162;9.470;2023-04-04T12:26:44;96799.59;;;6.64;48.57
55271;BME280;41132;47.162;9.470;2023-04-04T12:29:11;96790.53;;;6.47;49.17
55271;BME280;41132;47.162;9.470;2023-04-04T12:31:40;96781.22;;;6.66;50.37
55271;BME280;41132;47.162;9.470;2023-04-04T12:34:06;96783.69;;;6.67;48.66
55271;BME280;41132;47.162;9.470;2023-04-04T12:36:35;96787.84;;;6.70;48.64
55271;BME280;41132;47.162;9.470;2023-04-04T12:39:06;96784.13;;;6.84;49.52
55271;BME280;41132;47.162;9.470;2023-04-04T12:41:33;96769.03;;;6.87;45.93
55271;BME280;41132;47.162;9.470;2023-04-04T12:44:03;96768.25;;;6.76;48.68
55271;BME280;41132;47.162;9.470;2023-04-04T12:46:39;96776.28;;;6.84;47.20
55271;BME280;41132;47.162;9.470;2023-04-04T12:49:06;96774.50;;;6.84;46.56
55271;BME280;41132;47.162;9.470;2023-04-04T12:51:34;96775.53;;;6.93;46.53
55271;BME280;41132;47.162;9.470;2023-04-04T12:54:00;96776.56;;;7.02;45.50
55271;BME280;41132;47.162;9.470;2023-04-04T12:56:26;96774.97;;;7.31;47.41
55271;BME280;41132;47.162;9.470;2023-04-04T12:58:52;96760.56;;;7.16;46.50
55271;BME280;41132;47.162;9.470;2023-04-04T13:01:19;96767.63;;;7.25;47.68
55271;BME280;41132;47.162;9.470;2023-04-04T13:03:45;96777.31;;;7.14;46.41
55271;BME280;41132;47.162;9.470;2023-04-04T13:06:15;96763.19;;;7.16;44.85
55271;BME280;41132;47.162;9.470;2023-04-04T13:08:51;96770.38;;;7.24;47.43
55271;BME280;41132;47.162;9.470;2023-04-04T13:11:17;96770.69;;;7.30;46.99
55271;BME280;41132;47.162;9.470;2023-04-04T13:13:43;96763.63;;;7.21;43.97
55271;BME280;41132;47.162;9.470;2023-04-04T13:16:12;96774.00;;;7.11;45.81
55271;BME280;41132;47.162;9.470;2023-04-04T13:18:40;96767.63;;;7.25;46.59
55271;BME280;41132;47.162;9.470;2023-04-04T13:21:08;96761.97;;;7.20;44.89
55271;BME280;41132;47.162;9.470;2023-04-04T13:23:35;96773.47;;;7.39;46.31
55271;BME280;41132;47.162;9.470;2023-04-04T13:26:02;96760.31;;;7.19;46.42
55271;BME280;41132;47.162;9.470;2023-04-04T13:28:28;96762.28;;;7.06;46.45
55271;BME280;41132;47.162;9.470;2023-04-04T13:30:54;96751.53;;;7.51;45.99
55271;BME280;41132;47.162;9.470;2023-04-04T13:33:19;96757.50;;;7.63;44.39
55271;BME280;41132;47.162;9.470;2023-04-04T13:35:49;96760.34;;;7.50;43.99
55271;BME280;41132;47.162;9.470;2023-04-04T13:38:15;96752.91;;;7.24;44.93
55271;BME280;41132;47.162;9.470;2023-04-04T13:40:41;96765.88;;;7.36;42.42
55271;BME280;41132;47.162;9.470;2023-04-04T13:43:07;96758.59;;;7.29;42.85